Time;durP1;ratioP1;P1;durP2;ratioP2;P2;SDS_P1;SDS_P2;PMS_P1;PMS_P2;Temp;Humidity;BMP_temperature;BMP_pressure;BME280_temperature;BME280_humidity;BME280_pressure;Samples;Min_cycle;Max_cycle;Signal;HPM_P1;HPM_P2
2023/03/08 00:00:04;;;;;;;10.73;5.95;;;;;;;;;;5006566;28;20041;-68
2023/03/08 00:02:36;;;;;;;8.02;5.70;;;;;;;;;;5007180;28;20049;-66
2023/03/08 00:05:02;;;;;;;10.20;5.65;;;;;;;;;;5006485;28;20038;-68
2023/03/08 00:07:29;;;;;;;14.57;6.68;;;;;;;;;;5008383;28;20057;-65
2023/03/08 00:09:54;;;;;;;9.77;6.93;;;;;;;;;;5006748;28;20072;-71
2023/03/08 00:12:21;;;;;;;11.85;7.57;;;;;;;;;;5004782;28;20034;-67
2023/03/08 00:14:47;;;;;;;8.55;6.13;;;;;;;;;;5008531;28;20969;-68
2023/03/08 00:17:14;;;;;;;11.38;7.05;;;;;;;;;;5007506;28;20148;-69
2023/03/08 00:19:39;;;;;;;9.45;5.53;;;;;;;;;;5005107;28;20996;-70
2023/03/08 00:22:05;;;;;;;7.10;5.75;;;;;;;;;;5002891;28;20034;-66
2023/03/08 00:24:30;;;;;;;9.82;6.25;;;;;;;;;;5005414;28;20044;-70
2023/03/08 00:26:56;;;;;;;9.40;6.28;;;;;;;;;;5004873;28;20106;-67
2023/03/08 00:29:22;;;;;;;13.07;7.78;;;;;;;;;;5002940;28;20034;-70
2023/03/08 00:31:47;;;;;;;10.15;6.88;;;;;;;;;;5002694;28;20093;-68
2023/03/08 00:34:13;;;;;;;11.35;6.30;;;;;;;;;;5006785;28;20026;-70
2023/03/08 00:36:39;;;;;;;11.02;7.00;;;;;;;;;;5004756;28;20057;-67
2023/03/08 00:39:05;;;;;;;11.75;6.65;;;;;;;;;;5001961;28;20136;-68
2023/03/08 00:41:31;;;;;;;11.05;6.68;;;;;;;;;;4997534;28;20044;-68
2023/03/08 00:43:56;;;;;;;11.70;7.07;;;;;;;;;;5001646;28;20481;-68
2023/03/08 00:46:24;;;;;;;14.05;7.50;;;;;;;;;;5002454;28;20457;-69
2023/03/08 00:48:50;;;;;;;7.22;5.50;;;;;;;;;;5006860;28;20037;-68
2023/03/08 00:51:17;;;;;;;7.85;5.53;;;;;;;;;;5001043;28;20030;-67
2023/03/08 00:53:43;;;;;;;14.13;7.28;;;;;;;;;;5005369;28;20092;-70
2023/03/08 00:56:08;;;;;;;9.80;6.93;;;;;;;;;;5002911;28;20038;-67
2023/03/08 00:58:36;;;;;;;7.55;5.32;;;;;;;;;;5005842;28;20038;-69
2023/03/08 01:01:02;;;;;;;13.20;6.78;;;;;;;;;;5003699;28;20038;-67
2023/03/08 01:03:28;;;;;;;10.27;6.82;;;;;;;;;;5004059;28;20034;-68
2023/03/08 01:05:57;;;;;;;9.73;6.25;;;;;;;;;;5002487;28;20071;-70
2023/03/08 01:08:25;;;;;;;11.43;5.68;;;;;;;;;;5003981;28;20069;-67
2023/03/08 01:10:56;;;;;;;11.35;6.43;;;;;;;;;;5005998;28;20117;-70
2023/03/08 01:13:24;;;;;;;9.90;5.60;;;;;;;;;;5005339;28;20030;-66
2023/03/08 01:15:50;;;;;;;7.15;5.53;;;;;;;;;;5004904;28;20034;-66
2023/03/08 01:18:16;;;;;;;6.07;5.47;;;;;;;;;;5003645;28;20053;-67
2023/03/08 01:20:41;;;;;;;10.73;6.35;;;;;;;;;;5001287;28;20106;-68
2023/03/08 01:23:08;;;;;;;15.88;7.80;;;;;;;;;;5001914;28;20038;-68
2023/03/08 01:25:34;;;;;;;13.55;8.85;;;;;;;;;;5001723;28;20151;-69
2023/03/08 01:27:59;;;;;;;11.43;5.93;;;;;;;;;;5001949;28;20514;-67
2023/03/08 01:30:25;;;;;;;8.80;5.72;;;;;;;;;;5002296;28;20064;-69
2023/03/08 01:32:51;;;;;;;9.10;4.68;;;;;;;;;;5006168;28;20038;-70
2023/03/08 01:35:17;;;;;;;9.82;6.07;;;;;;;;;;5004323;28;20149;-66
2023/03/08 01:37:52;;;;;;;9.48;5.93;;;;;;;;;;5003699;28;20038;-68
2023/03/08 01:40:18;;;;;;;10.18;6.55;;;;;;;;;;4999701;28;20594;-67
2023/03/08 01:42:44;;;;;;;11.00;7.00;;;;;;;;;;5004175;28;20034;-67
2023/03/08 01:45:47;;;;;;;9.48;5.95;;;;;;;;;;5003395;28;20041;-69
2023/03/08 01:48:14;;;;;;;10.07;5.80;;;;;;;;;;5001886;28;20711;-66
2023/03/08 01:51:01;;;;;;;11.68;7.03;;;;;;;;;;5001357;28;20633;-67
2023/03/08 01:53:27;;;;;;;11.00;7.05;;;;;;;;;;5005913;28;20405;-70
2023/03/08 01:55:53;;;;;;;12.25;6.25;;;;;;;;;;5004690;28;20037;-70
2023/03/08 01:58:20;;;;;;;11.65;6.53;;;;;;;;;;5003839;28;20041;-69
2023/03/08 02:00:45;;;;;;;9.45;6.72;;;;;;;;;;5005567;28;20405;-67
2023/03/08 02:03:11;;;;;;;9.85;6.22;;;;;;;;;;5005350;28;20037;-68
2023/03/08 02:05:42;;;;;;;12.77;7.70;;;;;;;;;;5002431;28;20042;-67
2023/03/08 02:08:14;;;;;;;8.07;4.65;;;;;;;;;;5003970;28;20042;-67
2023/03/08 02:10:42;;;;;;;11.27;6.15;;;;;;;;;;5003108;28;20302;-68
2023/03/08 02:13:09;;;;;;;9.13;5.65;;;;;;;;;;5005032;28;20116;-69
2023/03/08 02:15:38;;;;;;;13.57;7.32;;;;;;;;;;5003089;28;20030;-68
2023/03/08 02:18:04;;;;;;;12.52;7.53;;;;;;;;;;4998643;28;20096;-71
2023/03/08 02:20:34;;;;;;;12.13;7.50;;;;;;;;;;5002939;28;20038;-67
2023/03/08 02:23:15;;;;;;;12.70;6.80;;;;;;;;;;4999044;28;20863;-67
2023/03/08 02:25:49;;;;;;;12.07;7.25;;;;;;;;;;5003551;28;20518;-67
2023/03/08 02:28:15;;;;;;;12.68;6.47;;;;;;;;;;5006393;28;20048;-69
2023/03/08 02:30:41;;;;;;;14.70;7.22;;;;;;;;;;5006639;28;20598;-69
2023/03/08 02:33:06;;;;;;;13.65;7.20;;;;;;;;;;5000332;28;20026;-69
2023/03/08 02:35:32;;;;;;;12.52;6.95;;;;;;;;;;5003910;28;20670;-69
2023/03/08 02:37:58;;;;;;;14.15;7.20;;;;;;;;;;5002184;28;20052;-69
2023/03/08 02:40:24;;;;;;;14.23;7.80;;;;;;;;;;5001406;28;20133;-70
2023/03/08 02:42:49;;;;;;;14.13;7.93;;;;;;;;;;5004475;28;20105;-69
2023/03/08 02:45:15;;;;;;;12.60;7.85;;;;;;;;;;5003042;28;20065;-67
2023/03/08 02:47:41;;;;;;;13.52;7.25;;;;;;;;;;5004820;28;20417;-68
2023/03/08 02:50:08;;;;;;;11.85;6.95;;;;;;;;;;4986514;28;20122;-68
2023/03/08 02:52:33;;;;;;;13.90;8.00;;;;;;;;;;5002741;28;20034;-69
2023/03/08 02:54:59;;;;;;;14.25;6.63;;;;;;;;;;5004386;28;20040;-69
2023/03/08 02:57:25;;;;;;;13.27;7.18;;;;;;;;;;5001826;28;20044;-68
2023/03/08 02:59:52;;;;;;;10.63;5.78;;;;;;;;;;5000673;28;20719;-68
2023/03/08 03:02:18;;;;;;;12.68;6.90;;;;;;;;;;5002902;28;20120;-69
2023/03/08 03:04:44;;;;;;;9.32;5.10;;;;;;;;;;5003230;28;20042;-68
2023/03/08 03:07:10;;;;;;;10.88;6.57;;;;;;;;;;4999305;28;20304;-69
2023/03/08 03:09:36;;;;;;;13.48;7.03;;;;;;;;;;4999986;28;20072;-69
2023/03/08 03:12:02;;;;;;;15.50;7.30;;;;;;;;;;5004321;28;20057;-70
2023/03/08 03:14:31;;;;;;;13.93;7.95;;;;;;;;;;5000543;28;20311;-68
2023/03/08 03:16:58;;;;;;;12.45;7.15;;;;;;;;;;5002263;28;20038;-67
2023/03/08 03:19:24;;;;;;;10.20;6.30;;;;;;;;;;5005674;28;20049;-69
2023/03/08 03:21:49;;;;;;;10.55;6.47;;;;;;;;;;4998718;28;20121;-70
2023/03/08 03:24:15;;;;;;;14.07;7.40;;;;;;;;;;5007069;28;20037;-70
2023/03/08 03:26:50;;;;;;;11.07;6.90;;;;;;;;;;5000948;28;20389;-71
2023/03/08 03:29:17;;;;;;;14.18;7.28;;;;;;;;;;5004804;28;20037;-70
2023/03/08 03:31:44;;;;;;;11.75;6.57;;;;;;;;;;5005647;28;20703;-69
2023/03/08 03:34:11;;;;;;;13.63;6.90;;;;;;;;;;5006655;28;20122;-69
2023/03/08 03:36:38;;;;;;;12.70;7.53;;;;;;;;;;5006651;28;20030;-68
2023/03/08 03:39:04;;;;;;;13.77;7.13;;;;;;;;;;5006656;28;20045;-70
2023/03/08 03:41:32;;;;;;;14.07;7.25;;;;;;;;;;5005210;28;20036;-66
2023/03/08 03:44:03;;;;;;;10.90;6.88;;;;;;;;;;5004463;28;20038;-69
2023/03/08 03:46:29;;;;;;;11.85;7.18;;;;;;;;;;5004738;28;20065;-68
2023/03/08 03:48:56;;;;;;;10.43;6.80;;;;;;;;;;5005010;28;20060;-70
2023/03/08 03:51:24;;;;;;;12.82;7.57;;;;;;;;;;5005761;28;20180;-66
2023/03/08 03:54:00;;;;;;;10.73;6.93;;;;;;;;;;5004220;28;20369;-67
2023/03/08 03:56:27;;;;;;;13.35;7.55;;;;;;;;;;5005113;28;20033;-66
2023/03/08 03:58:56;;;;;;;7.82;6.05;;;;;;;;;;5005990;28;20029;-68
2023/03/08 04:01:27;;;;;;;9.85;6.07;;;;;;;;;;5006796;28;20053;-68
2023/03/08 04:03:57;;;;;;;11.18;6.72;;;;;;;;;;5005384;28;20036;-66
2023/03/08 04:06:27;;;;;;;12.50;6.90;;;;;;;;;;5006694;28;20052;-68
2023/03/08 04:08:57;;;;;;;10.75;7.07;;;;;;;;;;5001033;28;20056;-68
2023/03/08 04:11:27;;;;;;;10.85;7.32;;;;;;;;;;5006571;28;20065;-66
2023/03/08 04:13:54;;;;;;;12.85;6.93;;;;;;;;;;5003778;28;20030;-66
2023/03/08 04:16:31;;;;;;;14.23;7.57;;;;;;;;;;5000309;28;20042;-66
2023/03/08 04:19:06;;;;;;;10.38;6.32;;;;;;;;;;5013081;28;20041;-68
2023/03/08 04:21:32;;;;;;;10.77;6.95;;;;;;;;;;5003996;28;20037;-66
2023/03/08 04:23:59;;;;;;;11.95;7.45;;;;;;;;;;5005350;28;20034;-67
2023/03/08 04:26:25;;;;;;;14.45;7.75;;;;;;;;;;5006318;28;20056;-67
2023/03/08 04:28:51;;;;;;;14.20;7.10;;;;;;;;;;5006041;28;20034;-66
2023/03/08 04:31:26;;;;;;;11.30;7.60;;;;;;;;;;5004960;28;20034;-67
2023/03/08 04:33:53;;;;;;;11.85;7.38;;;;;;;;;;5007638;28;20037;-65
2023/03/08 04:36:20;;;;;;;16.95;8.02;;;;;;;;;;5002696;28;20411;-71
2023/03/08 04:38:47;;;;;;;14.60;7.70;;;;;;;;;;5005333;28;20045;-69
2023/03/08 04:41:14;;;;;;;14.48;7.55;;;;;;;;;;5006685;28;20038;-69
2023/03/08 04:43:56;;;;;;;13.13;7.00;;;;;;;;;;5005897;28;20594;-66
2023/03/08 04:46:31;;;;;;;16.73;8.02;;;;;;;;;;5005642;28;20049;-69
2023/03/08 04:48:57;;;;;;;12.45;7.40;;;;;;;;;;5004955;28;20485;-66
2023/03/08 04:51:27;;;;;;;10.82;7.20;;;;;;;;;;5007926;28;20056;-68
2023/03/08 04:53:55;;;;;;;14.50;7.17;;;;;;;;;;5005834;28;20045;-65
2023/03/08 04:56:21;;;;;;;14.20;7.72;;;;;;;;;;5001544;28;20026;-66
2023/03/08 04:58:48;;;;;;;8.45;5.13;;;;;;;;;;5005176;28;20045;-67
2023/03/08 05:01:23;;;;;;;14.70;8.02;;;;;;;;;;5004126;28;20046;-66
2023/03/08 05:03:52;;;;;;;16.83;7.88;;;;;;;;;;5005836;28;20417;-68
2023/03/08 05:06:23;;;;;;;14.15;7.30;;;;;;;;;;5003034;28;20409;-71
2023/03/08 05:08:49;;;;;;;12.07;5.80;;;;;;;;;;5021642;28;20042;-67
2023/03/08 05:11:22;;;;;;;11.05;6.78;;;;;;;;;;5004368;28;20041;-66
2023/03/08 05:13:48;;;;;;;9.45;6.80;;;;;;;;;;4999701;28;20040;-66
2023/03/08 05:16:14;;;;;;;12.55;7.55;;;;;;;;;;4990940;28;20025;-68
2023/03/08 05:18:40;;;;;;;10.75;6.40;;;;;;;;;;5006176;28;20034;-68
2023/03/08 05:21:11;;;;;;;10.25;6.18;;;;;;;;;;5003209;28;20041;-68
2023/03/08 05:23:37;;;;;;;11.00;7.07;;;;;;;;;;5002962;28;20042;-66
2023/03/08 05:26:05;;;;;;;12.93;6.32;;;;;;;;;;5006540;28;20520;-65
2023/03/08 05:28:33;;;;;;;8.20;5.45;;;;;;;;;;5003150;28;20052;-69
2023/03/08 05:31:05;;;;;;;10.60;5.22;;;;;;;;;;5004793;28;20401;-67
2023/03/08 05:33:34;;;;;;;16.08;7.88;;;;;;;;;;5006101;28;20109;-68
2023/03/08 05:36:00;;;;;;;10.68;7.00;;;;;;;;;;5002323;28;20034;-66
2023/03/08 05:38:26;;;;;;;14.93;7.50;;;;;;;;;;5001097;28;20044;-66
2023/03/08 05:40:53;;;;;;;16.00;8.20;;;;;;;;;;5002789;28;20448;-65
2023/03/08 05:43:20;;;;;;;12.55;7.10;;;;;;;;;;5004969;28;20034;-68
2023/03/08 05:46:01;;;;;;;13.68;7.72;;;;;;;;;;5006021;28;20710;-68
2023/03/08 05:48:29;;;;;;;15.95;8.32;;;;;;;;;;5003344;28;20426;-69
2023/03/08 05:50:55;;;;;;;5.63;4.97;;;;;;;;;;5001953;28;20034;-66
2023/03/08 05:53:21;;;;;;;12.80;7.80;;;;;;;;;;5003247;28;20030;-67
2023/03/08 05:55:47;;;;;;;9.20;5.43;;;;;;;;;;5002822;28;20038;-69
2023/03/08 05:58:13;;;;;;;11.82;7.32;;;;;;;;;;5004811;28;20171;-66
2023/03/08 06:00:39;;;;;;;12.45;7.53;;;;;;;;;;5005093;28;20482;-69
2023/03/08 06:03:04;;;;;;;9.73;6.53;;;;;;;;;;4999783;28;20030;-67
2023/03/08 06:05:33;;;;;;;15.02;7.75;;;;;;;;;;5001026;28;20040;-66
2023/03/08 06:07:59;;;;;;;10.85;7.53;;;;;;;;;;5005054;28;20034;-67
2023/03/08 06:10:25;;;;;;;9.20;5.80;;;;;;;;;;5005367;28;20848;-68
2023/03/08 06:12:52;;;;;;;10.73;5.72;;;;;;;;;;5000408;28;20033;-66
2023/03/08 06:15:21;;;;;;;13.10;7.57;;;;;;;;;;5001069;28;20336;-69
2023/03/08 06:17:46;;;;;;;11.50;7.13;;;;;;;;;;5005953;28;20034;-68
2023/03/08 06:20:16;;;;;;;18.05;8.95;;;;;;;;;;4999660;28;20038;-68
2023/03/08 06:22:45;;;;;;;17.10;9.60;;;;;;;;;;5003785;28;20060;-69
2023/03/08 06:25:11;;;;;;;18.52;9.50;;;;;;;;;;5003560;28;20544;-68
2023/03/08 06:27:38;;;;;;;12.25;6.20;;;;;;;;;;5003348;28;20477;-67
2023/03/08 06:30:12;;;;;;;18.05;8.40;;;;;;;;;;5004942;28;20193;-69
2023/03/08 06:32:37;;;;;;;11.38;8.10;;;;;;;;;;5005544;28;20092;-69
2023/03/08 06:35:05;;;;;;;13.20;6.25;;;;;;;;;;5001581;28;20034;-67
2023/03/08 06:37:33;;;;;;;5.03;4.53;;;;;;;;;;5004458;28;20127;-68
2023/03/08 06:39:59;;;;;;;13.63;7.88;;;;;;;;;;5000419;28;20118;-67
2023/03/08 06:42:26;;;;;;;15.60;7.15;;;;;;;;;;4986611;28;20054;-68
2023/03/08 06:44:52;;;;;;;7.68;6.22;;;;;;;;;;4987533;28;20038;-68
2023/03/08 06:47:18;;;;;;;10.90;6.72;;;;;;;;;;5010548;28;20627;-68
2023/03/08 06:49:43;;;;;;;12.38;7.35;;;;;;;;;;5004999;28;20100;-67
2023/03/08 06:52:09;;;;;;;12.45;8.48;;;;;;;;;;5004365;28;20045;-66
2023/03/08 06:54:35;;;;;;;7.35;5.70;;;;;;;;;;5006966;28;20080;-67
2023/03/08 06:57:03;;;;;;;13.50;6.65;;;;;;;;;;5006495;28;20038;-69
2023/03/08 06:59:28;;;;;;;13.55;8.40;;;;;;;;;;5004882;28;20046;-69
2023/03/08 07:01:54;;;;;;;14.68;8.45;;;;;;;;;;4999293;28;20065;-70
2023/03/08 07:04:19;;;;;;;13.60;7.75;;;;;;;;;;5007236;28;20061;-67
2023/03/08 07:06:45;;;;;;;13.60;8.63;;;;;;;;;;5007185;28;20502;-69
2023/03/08 07:09:12;;;;;;;13.73;7.80;;;;;;;;;;5009798;28;20026;-70
2023/03/08 07:11:38;;;;;;;12.38;7.38;;;;;;;;;;5011094;28;20453;-67
2023/03/08 07:14:03;;;;;;;11.38;7.50;;;;;;;;;;5011148;28;20060;-69
2023/03/08 07:16:29;;;;;;;13.15;8.52;;;;;;;;;;5011011;28;20038;-68
2023/03/08 07:18:55;;;;;;;14.98;8.77;;;;;;;;;;5010456;28;20445;-67
2023/03/08 07:21:22;;;;;;;12.48;8.80;;;;;;;;;;5009534;28;20068;-70
2023/03/08 07:23:52;;;;;;;12.95;9.07;;;;;;;;;;5008721;28;20040;-68
2023/03/08 07:26:17;;;;;;;24.17;10.75;;;;;;;;;;5010175;28;20484;-68
2023/03/08 07:28:43;;;;;;;14.50;8.43;;;;;;;;;;5010307;28;20129;-68
2023/03/08 07:31:11;;;;;;;14.75;9.43;;;;;;;;;;5007067;28;20092;-68
2023/03/08 07:33:36;;;;;;;14.75;8.50;;;;;;;;;;5007755;28;20081;-69
2023/03/08 07:36:02;;;;;;;17.73;9.40;;;;;;;;;;5012171;28;20037;-67
2023/03/08 07:38:28;;;;;;;12.85;8.90;;;;;;;;;;5014053;28;20045;-68
2023/03/08 07:40:55;;;;;;;18.63;9.52;;;;;;;;;;5008793;28;20038;-69
2023/03/08 07:43:20;;;;;;;11.75;7.78;;;;;;;;;;5009187;28;20464;-69
2023/03/08 07:45:52;;;;;;;15.25;7.97;;;;;;;;;;5009932;28;20046;-68
2023/03/08 07:48:18;;;;;;;13.00;8.07;;;;;;;;;;5010132;28;20040;-67
2023/03/08 07:50:43;;;;;;;20.92;10.02;;;;;;;;;;5009339;28;20125;-67
2023/03/08 07:53:09;;;;;;;14.82;8.88;;;;;;;;;;5009972;28;20125;-68
2023/03/08 07:55:36;;;;;;;15.98;8.73;;;;;;;;;;5008924;28;20033;-69
2023/03/08 07:58:02;;;;;;;15.18;8.55;;;;;;;;;;5007355;28;20417;-68
2023/03/08 08:00:28;;;;;;;11.65;7.03;;;;;;;;;;5009616;28;20045;-67
2023/03/08 08:02:53;;;;;;;24.67;13.23;;;;;;;;;;5010158;28;20034;-67
2023/03/08 08:05:20;;;;;;;14.85;8.40;;;;;;;;;;5008852;28;20030;-70
2023/03/08 08:07:47;;;;;;;30.60;14.63;;;;;;;;;;5008599;28;20482;-67
2023/03/08 08:10:13;;;;;;;14.50;8.68;;;;;;;;;;5009798;28;20041;-66
2023/03/08 08:12:38;;;;;;;13.40;7.70;;;;;;;;;;5009903;28;20042;-67
2023/03/08 08:15:04;;;;;;;13.40;8.65;;;;;;;;;;5009969;28;20030;-67
2023/03/08 08:17:30;;;;;;;12.88;7.85;;;;;;;;;;5007434;28;20509;-68
2023/03/08 08:19:55;;;;;;;20.35;9.43;;;;;;;;;;5008886;28;20512;-67
2023/03/08 08:22:21;;;;;;;14.77;9.20;;;;;;;;;;5008475;28;20481;-67
2023/03/08 08:24:46;;;;;;;16.55;9.68;;;;;;;;;;5009409;28;20732;-67
2023/03/08 08:27:12;;;;;;;14.02;8.02;;;;;;;;;;5007958;28;20045;-68
2023/03/08 08:29:37;;;;;;;13.57;8.32;;;;;;;;;;5010882;28;20338;-68
2023/03/08 08:32:04;;;;;;;16.65;10.20;;;;;;;;;;5009811;28;20036;-66
2023/03/08 08:34:29;;;;;;;14.40;9.25;;;;;;;;;;5006148;28;20038;-67
2023/03/08 08:36:55;;;;;;;20.27;10.95;;;;;;;;;;5006303;28;20344;-67
2023/03/08 08:39:21;;;;;;;20.70;10.88;;;;;;;;;;5011164;28;20041;-68
2023/03/08 08:41:50;;;;;;;24.65;12.30;;;;;;;;;;5007471;28;20044;-70
2023/03/08 08:44:15;;;;;;;13.05;9.15;;;;;;;;;;5008888;28;20041;-68
2023/03/08 08:46:41;;;;;;;19.95;10.05;;;;;;;;;;5009479;28;20197;-67
2023/03/08 08:49:09;;;;;;;16.48;9.93;;;;;;;;;;5009593;28;20045;-67
2023/03/08 08:51:34;;;;;;;15.60;9.82;;;;;;;;;;5006460;28;20029;-66
2023/03/08 08:54:00;;;;;;;15.77;9.88;;;;;;;;;;5008600;28;20551;-66
2023/03/08 08:56:27;;;;;;;18.73;10.40;;;;;;;;;;5008741;28;20121;-69
2023/03/08 08:58:59;;;;;;;26.15;10.77;;;;;;;;;;5007190;28;20037;-67
2023/03/08 09:01:28;;;;;;;12.00;7.32;;;;;;;;;;5008688;28;20157;-70
2023/03/08 09:03:54;;;;;;;17.13;10.70;;;;;;;;;;5008747;28;20038;-69
2023/03/08 09:06:21;;;;;;;8.10;5.50;;;;;;;;;;5008098;28;20053;-70
2023/03/08 09:08:51;;;;;;;17.58;10.05;;;;;;;;;;5008299;28;20037;-68
2023/03/08 09:11:17;;;;;;;10.35;7.90;;;;;;;;;;5001568;28;20538;-68
2023/03/08 09:13:42;;;;;;;21.23;11.15;;;;;;;;;;5006794;28;20121;-67
2023/03/08 09:16:25;;;;;;;17.48;8.93;;;;;;;;;;5008954;28;20114;-69
2023/03/08 09:18:52;;;;;;;17.00;9.75;;;;;;;;;;5007510;28;20065;-68
2023/03/08 09:21:18;;;;;;;13.90;8.73;;;;;;;;;;5002735;28;20394;-67
2023/03/08 09:23:44;;;;;;;17.73;10.88;;;;;;;;;;5008376;28;20481;-67
2023/03/08 09:26:10;;;;;;;16.88;9.90;;;;;;;;;;5008160;28;20041;-68
2023/03/08 09:28:36;;;;;;;12.20;7.95;;;;;;;;;;5007852;28;20034;-66
2023/03/08 09:31:11;;;;;;;17.20;9.93;;;;;;;;;;5001738;28;20029;-69
2023/03/08 09:33:39;;;;;;;16.60;10.93;;;;;;;;;;5005732;28;20022;-68
2023/03/08 09:36:05;;;;;;;9.10;6.43;;;;;;;;;;5004255;28;20444;-70
2023/03/08 09:38:30;;;;;;;12.65;7.88;;;;;;;;;;5005550;28;20037;-66
2023/03/08 09:41:17;;;;;;;15.40;9.57;;;;;;;;;;5007272;28;20281;-69
2023/03/08 09:44:08;;;;;;;9.00;7.57;;;;;;;;;;5006132;28;20100;-68
2023/03/08 09:46:39;;;;;;;15.50;9.82;;;;;;;;;;5000565;28;20030;-66
2023/03/08 09:49:13;;;;;;;15.25;9.60;;;;;;;;;;5005983;28;20523;-69
2023/03/08 09:51:45;;;;;;;15.98;8.75;;;;;;;;;;5005867;28;20128;-69
2023/03/08 09:54:19;;;;;;;16.58;10.13;;;;;;;;;;5006665;28;20390;-69
2023/03/08 09:56:50;;;;;;;15.48;9.63;;;;;;;;;;5005519;28;20486;-67
2023/03/08 09:59:33;;;;;;;20.92;10.77;;;;;;;;;;5005777;28;20041;-68
2023/03/08 10:02:20;;;;;;;18.30;10.25;;;;;;;;;;5006811;28;20447;-68
2023/03/08 10:05:22;;;;;;;19.45;10.00;;;;;;;;;;5006930;28;20475;-67
2023/03/08 10:08:15;;;;;;;17.55;10.40;;;;;;;;;;4998646;28;20038;-69
2023/03/08 10:10:55;;;;;;;19.20;10.85;;;;;;;;;;5005755;28;20451;-67
2023/03/08 10:13:37;;;;;;;18.48;11.13;;;;;;;;;;5008160;28;20481;-67
2023/03/08 10:16:05;;;;;;;19.35;10.18;;;;;;;;;;5007292;28;20516;-67
2023/03/08 10:18:35;;;;;;;16.65;9.75;;;;;;;;;;5005782;28;20124;-67
2023/03/08 10:21:01;;;;;;;21.48;11.07;;;;;;;;;;5005669;28;20556;-69
2023/03/08 10:23:30;;;;;;;15.27;9.23;;;;;;;;;;5005749;28;20030;-68
2023/03/08 10:25:56;;;;;;;13.80;9.43;;;;;;;;;;5005461;28;20034;-69
2023/03/08 10:28:25;;;;;;;14.02;9.18;;;;;;;;;;5008649;28;20034;-70
2023/03/08 10:30:53;;;;;;;17.45;10.32;;;;;;;;;;5011266;28;20476;-68
2023/03/08 10:33:23;;;;;;;11.88;8.05;;;;;;;;;;4996598;28;20038;-69
2023/03/08 10:35:51;;;;;;;14.48;9.32;;;;;;;;;;4997889;28;20113;-69
2023/03/08 10:38:17;;;;;;;9.75;6.32;;;;;;;;;;5010858;28;20033;-69
2023/03/08 10:40:43;;;;;;;14.30;8.80;;;;;;;;;;5010964;28;20038;-69
2023/03/08 10:43:22;;;;;;;5.45;4.93;;;;;;;;;;5012025;28;20045;-67
2023/03/08 10:45:57;;;;;;;13.55;8.48;;;;;;;;;;5005036;28;20037;-66
2023/03/08 10:48:23;;;;;;;16.02;9.05;;;;;;;;;;5012024;28;20068;-69
2023/03/08 10:50:58;;;;;;;9.63;6.68;;;;;;;;;;5009824;28;20276;-67
2023/03/08 10:53:27;;;;;;;12.57;6.38;;;;;;;;;;5004795;28;20041;-68
2023/03/08 10:55:53;;;;;;;5.65;4.97;;;;;;;;;;5008143;28;20172;-67
2023/03/08 10:58:28;;;;;;;6.82;5.10;;;;;;;;;;5007860;28;20042;-69
2023/03/08 11:00:55;;;;;;;7.90;4.78;;;;;;;;;;5008545;28;20528;-68
2023/03/08 11:03:24;;;;;;;7.93;3.78;;;;;;;;;;5009190;28;20065;-67
2023/03/08 11:05:54;;;;;;;5.05;4.55;;;;;;;;;;5007903;28;20584;-70
2023/03/08 11:08:23;;;;;;;3.50;3.20;;;;;;;;;;5005021;28;20034;-71
2023/03/08 11:10:58;;;;;;;;;;;;;;;;;;5004111;28;20581;-68
2023/03/08 11:13:36;;;;;;;3.97;3.58;;;;;;;;;;5007899;28;19999;-69
2023/03/08 11:16:23;;;;;;;3.70;3.20;;;;;;;;;;5008241;28;20449;-68
2023/03/08 11:19:15;;;;;;;5.10;3.65;;;;;;;;;;5006653;28;20046;-68
2023/03/08 11:22:04;;;;;;;3.85;3.55;;;;;;;;;;5005875;28;20050;-69
2023/03/08 11:25:00;;;;;;;4.43;3.47;;;;;;;;;;5007904;28;20185;-68
2023/03/08 11:27:50;;;;;;;3.85;3.47;;;;;;;;;;5009191;28;20125;-68
2023/03/08 11:30:28;;;;;;;3.05;2.80;;;;;;;;;;5005162;28;20048;-68
2023/03/08 11:33:03;;;;;;;3.33;3.03;;;;;;;;;;5009554;28;20034;-67
2023/03/08 11:35:58;;;;;;;2.88;2.67;;;;;;;;;;5007608;28;20506;-70
2023/03/08 11:38:26;;;;;;;3.10;2.88;;;;;;;;;;5006539;28;20034;-68
2023/03/08 11:40:57;;;;;;;3.13;2.95;;;;;;;;;;5011056;28;20405;-70
2023/03/08 11:43:26;;;;;;;3.33;3.13;;;;;;;;;;5013901;28;20041;-69
2023/03/08 11:46:15;;;;;;;2.80;2.60;;;;;;;;;;5020158;28;20042;-69
2023/03/08 11:49:02;;;;;;;2.65;2.55;;;;;;;;;;5017906;28;20056;-68
2023/03/08 11:51:36;;;;;;;2.70;2.60;;;;;;;;;;5009725;28;20041;-68
2023/03/08 11:54:28;;;;;;;3.15;2.95;;;;;;;;;;5006591;28;20049;-68
2023/03/08 11:56:56;;;;;;;3.22;2.67;;;;;;;;;;5006677;28;20046;-68
2023/03/08 11:59:34;;;;;;;2.95;2.75;;;;;;;;;;5021791;28;20037;-68
2023/03/08 12:02:05;;;;;;;2.75;2.65;;;;;;;;;;5019672;28;20034;-69
2023/03/08 12:04:37;;;;;;;3.00;2.80;;;;;;;;;;5007055;28;20034;-67
2023/03/08 12:07:14;;;;;;;2.80;2.67;;;;;;;;;;5008351;28;20528;-68
2023/03/08 12:09:51;;;;;;;2.70;2.60;;;;;;;;;;5004160;28;20133;-67
2023/03/08 12:12:33;;;;;;;2.88;2.67;;;;;;;;;;5005593;28;20634;-68
2023/03/08 12:15:05;;;;;;;2.55;2.42;;;;;;;;;;5001479;28;20059;-69
2023/03/08 12:17:39;;;;;;;3.08;2.88;;;;;;;;;;5007239;28;20424;-67
2023/03/08 12:20:08;;;;;;;3.20;2.90;;;;;;;;;;5006735;28;20044;-69
2023/03/08 12:22:46;;;;;;;3.70;2.53;;;;;;;;;;5002813;28;20037;-68
2023/03/08 12:25:16;;;;;;;3.85;2.70;;;;;;;;;;5009185;28;20056;-69
2023/03/08 12:27:48;;;;;;;4.75;2.78;;;;;;;;;;5000743;28;20038;-69
2023/03/08 12:30:26;;;;;;;2.53;2.42;;;;;;;;;;4989284;28;20058;-69
2023/03/08 12:32:54;;;;;;;3.00;2.80;;;;;;;;;;4989841;28;20052;-67
2023/03/08 12:35:34;;;;;;;3.53;2.88;;;;;;;;;;4993168;28;20026;-70
2023/03/08 12:38:14;;;;;;;;;;;;;;;;;;5007402;28;20045;-68
2023/03/08 12:40:43;;;;;;;3.10;2.92;;;;;;;;;;5003008;28;19913;-68
2023/03/08 12:43:32;;;;;;;4.07;2.70;;;;;;;;;;5008050;28;20034;-68
2023/03/08 12:45:58;;;;;;;3.17;2.90;;;;;;;;;;5009401;28;20125;-67
2023/03/08 12:48:27;;;;;;;4.72;3.35;;;;;;;;;;5005172;28;20288;-68
2023/03/08 12:50:53;;;;;;;2.80;2.60;;;;;;;;;;5006089;28;20037;-69
2023/03/08 12:53:29;;;;;;;3.00;2.80;;;;;;;;;;5008565;28;20045;-68
2023/03/08 12:56:18;;;;;;;3.05;2.85;;;;;;;;;;5008148;28;20069;-70
2023/03/08 12:58:59;;;;;;;3.20;2.90;;;;;;;;;;5007268;28;20069;-69
2023/03/08 13:01:28;;;;;;;2.92;2.72;;;;;;;;;;5008663;28;20042;-68
2023/03/08 13:03:53;;;;;;;2.90;2.75;;;;;;;;;;5008784;28;20095;-68
2023/03/08 13:06:22;;;;;;;3.03;2.83;;;;;;;;;;5008143;28;20141;-68
2023/03/08 13:09:03;;;;;;;2.80;2.70;;;;;;;;;;5003717;28;20147;-67
2023/03/08 13:11:57;;;;;;;3.08;2.90;;;;;;;;;;5007164;28;20038;-70
2023/03/08 13:14:43;;;;;;;2.80;2.60;;;;;;;;;;5006839;28;20550;-68
2023/03/08 13:17:30;;;;;;;5.20;2.78;;;;;;;;;;5001373;28;20042;-68
2023/03/08 13:19:58;;;;;;;2.80;2.60;;;;;;;;;;5006554;28;20092;-68
2023/03/08 13:22:51;;;;;;;3.00;2.80;;;;;;;;;;5007775;28;20046;-69
2023/03/08 13:26:05;;;;;;;2.70;2.60;;;;;;;;;;5004133;28;20089;-68
2023/03/08 13:28:34;;;;;;;2.80;2.70;;;;;;;;;;5004614;28;20037;-68
2023/03/08 13:31:03;;;;;;;3.50;2.92;;;;;;;;;;5008520;28;20036;-68
2023/03/08 13:33:41;;;;;;;2.70;2.60;;;;;;;;;;5004393;28;20187;-69
2023/03/08 13:36:23;;;;;;;3.30;2.95;;;;;;;;;;5004795;28;20052;-68
2023/03/08 13:39:00;;;;;;;3.35;2.90;;;;;;;;;;5005438;28;20116;-68
2023/03/08 13:42:03;;;;;;;2.90;2.80;;;;;;;;;;5006219;28;20073;-68
2023/03/08 13:44:29;;;;;;;2.72;2.53;;;;;;;;;;5004540;28;20053;-68
2023/03/08 13:46:57;;;;;;;2.70;2.60;;;;;;;;;;5006862;28;20461;-68
2023/03/08 13:49:26;;;;;;;2.63;2.53;;;;;;;;;;5006078;28;20037;-69
2023/03/08 13:52:15;;;;;;;2.97;2.80;;;;;;;;;;5005105;28;20438;-68
2023/03/08 13:54:45;;;;;;;2.92;2.72;;;;;;;;;;5000872;28;20038;-68
2023/03/08 13:57:20;;;;;;;2.80;2.70;;;;;;;;;;5006249;28;20069;-68
2023/03/08 14:00:07;;;;;;;3.33;3.13;;;;;;;;;;5006018;28;20041;-68
2023/03/08 14:02:33;;;;;;;2.67;2.58;;;;;;;;;;5001723;28;20045;-67
2023/03/08 14:04:59;;;;;;;3.30;3.10;;;;;;;;;;5005058;28;20059;-68
2023/03/08 14:07:27;;;;;;;2.90;2.70;;;;;;;;;;5007759;28;20646;-68
2023/03/08 14:09:53;;;;;;;3.25;3.05;;;;;;;;;;5005388;28;20033;-68
2023/03/08 14:12:22;;;;;;;3.10;2.90;;;;;;;;;;5004292;28;20060;-69
2023/03/08 14:15:03;;;;;;;3.10;2.90;;;;;;;;;;5003224;28;20065;-68
2023/03/08 14:17:33;;;;;;;3.35;3.03;;;;;;;;;;5005623;28;20038;-71
2023/03/08 14:20:03;;;;;;;3.50;3.30;;;;;;;;;;5004401;28;20038;-68
2023/03/08 14:22:38;;;;;;;3.45;3.13;;;;;;;;;;5002772;28;20544;-68
2023/03/08 14:25:04;;;;;;;3.20;3.00;;;;;;;;;;5003021;28;20038;-68
2023/03/08 14:27:35;;;;;;;3.10;3.00;;;;;;;;;;5005316;28;20071;-67
2023/03/08 14:30:09;;;;;;;2.90;2.80;;;;;;;;;;5001223;28;20034;-68
2023/03/08 14:32:37;;;;;;;2.72;2.63;;;;;;;;;;5006199;28;20030;-70
2023/03/08 14:35:15;;;;;;;2.90;2.70;;;;;;;;;;5003746;28;20037;-68
2023/03/08 14:37:43;;;;;;;2.93;2.83;;;;;;;;;;5007331;28;20132;-68
2023/03/08 14:40:12;;;;;;;2.95;2.85;;;;;;;;;;5004608;28;20595;-68
2023/03/08 14:42:43;;;;;;;2.80;2.70;;;;;;;;;;5007900;28;20144;-68
2023/03/08 14:45:37;;;;;;;3.00;2.80;;;;;;;;;;5003835;28;20521;-68
2023/03/08 14:48:18;;;;;;;3.60;3.40;;;;;;;;;;5006415;28;20132;-70
2023/03/08 14:50:53;;;;;;;2.90;2.80;;;;;;;;;;5001222;28;20457;-69